Time;durP1;ratioP1;P1;durP2;ratioP2;P2;SDS_P1;SDS_P2;PMS_P1;PMS_P2;Temp;Humidity;BMP_temperature;BMP_pressure;BME280_temperature;BME280_humidity;BME280_pressure;Samples;Min_cycle;Max_cycle;Signal;HPM_P1;HPM_P2
2023/04/24 00:02:06;;;;;;;4.70;1.90;;;36.00;25.40;;;;;;5069668;28;20409;-65
2023/04/24 00:04:33;;;;;;;9.13;1.95;;;36.10;25.80;;;;;;5065350;28;20025;-63
2023/04/24 00:06:59;;;;;;;10.30;2.15;;;36.10;25.00;;;;;;5068648;28;20064;-62
2023/04/24 00:09:26;;;;;;;13.57;2.40;;;36.10;25.40;;;;;;5065212;28;20020;-65
2023/04/24 00:11:53;;;;;;;15.57;3.03;;;36.00;25.20;;;;;;5063868;28;20047;-64
2023/04/24 00:14:20;;;;;;;13.30;2.95;;;35.90;25.30;;;;;;5065126;28;20021;-63
2023/04/24 00:16:46;;;;;;;22.30;3.20;;;35.90;25.40;;;;;;5062891;28;20103;-64
2023/04/24 00:19:12;;;;;;;18.05;3.67;;;35.80;25.40;;;;;;5072092;28;20062;-65
2023/04/24 00:21:39;;;;;;;12.13;2.70;;;35.70;25.30;;;;;;5064310;28;20028;-64
2023/04/24 00:24:06;;;;;;;12.43;3.00;;;35.60;25.40;;;;;;5063464;28;20055;-64
2023/04/24 00:26:32;;;;;;;21.88;3.13;;;35.60;25.50;;;;;;5060347;28;20025;-65
2023/04/24 00:28:59;;;;;;;14.55;2.60;;;35.60;25.50;;;;;;5063606;28;20047;-61
2023/04/24 00:31:25;;;;;;;7.80;2.38;;;35.60;25.50;;;;;;5067695;28;20046;-64
2023/04/24 00:33:52;;;;;;;14.05;2.70;;;35.50;25.30;;;;;;5064590;28;20323;-63
2023/04/24 00:36:20;;;;;;;17.33;2.60;;;35.50;25.40;;;;;;5066183;28;20047;-63
2023/04/24 00:38:47;;;;;;;12.70;3.35;;;35.50;25.50;;;;;;5065219;28;20028;-63
2023/04/24 00:41:13;;;;;;;11.35;2.67;;;35.30;25.60;;;;;;5064910;28;20613;-63
2023/04/24 00:43:40;;;;;;;9.63;2.03;;;35.20;25.80;;;;;;5064838;28;20021;-64
2023/04/24 00:46:06;;;;;;;13.35;2.50;;;35.20;25.90;;;;;;5065088;28;20485;-63
2023/04/24 00:48:34;;;;;;;10.55;1.83;;;35.10;25.60;;;;;;5064578;28;20053;-64
2023/04/24 00:51:01;;;;;;;9.00;2.15;;;35.00;25.40;;;;;;5064271;28;20025;-63
2023/04/24 00:53:27;;;;;;;13.07;2.08;;;35.00;25.70;;;;;;5067356;28;20032;-63
2023/04/24 00:55:53;;;;;;;10.13;1.77;;;34.90;25.50;;;;;;5067197;28;20489;-63
2023/04/24 00:58:20;;;;;;;7.53;1.70;;;34.90;25.50;;;;;;5072931;28;20026;-63
2023/04/24 01:00:48;;;;;;;15.20;1.58;;;34.80;25.70;;;;;;5067410;28;20143;-64
2023/04/24 01:03:15;;;;;;;9.98;2.08;;;34.80;25.70;;;;;;5066992;28;20024;-63
2023/04/24 01:05:42;;;;;;;14.75;2.38;;;34.70;25.70;;;;;;5067651;28;20031;-63
2023/04/24 01:08:09;;;;;;;13.77;2.53;;;34.60;26.00;;;;;;5067554;28;20062;-65
2023/04/24 01:10:36;;;;;;;12.27;2.13;;;34.50;26.30;;;;;;5067289;28;20111;-63
2023/04/24 01:13:03;;;;;;;9.45;2.10;;;34.40;26.30;;;;;;5068200;28;20416;-63
2023/04/24 01:15:29;;;;;;;10.85;2.47;;;34.30;26.50;;;;;;5067987;28;20025;-63
2023/04/24 01:17:56;;;;;;;16.05;2.65;;;34.30;26.60;;;;;;5066437;28;20441;-65
2023/04/24 01:20:24;;;;;;;18.83;2.80;;;34.30;26.70;;;;;;5066208;28;20397;-63
2023/04/24 01:22:50;;;;;;;21.55;2.53;;;34.20;26.60;;;;;;5067254;28;20020;-63
2023/04/24 01:25:17;;;;;;;21.08;3.75;;;34.10;27.00;;;;;;5066359;28;20059;-67
2023/04/24 01:27:44;;;;;;;14.75;3.30;;;34.00;26.20;;;;;;5067453;28;20056;-66
2023/04/24 01:30:12;;;;;;;16.35;2.65;;;33.80;26.40;;;;;;5067627;28;20563;-65
2023/04/24 01:32:39;;;;;;;16.55;2.30;;;33.80;26.70;;;;;;5067560;28;20033;-64
2023/04/24 01:35:06;;;;;;;23.40;3.15;;;33.70;26.60;;;;;;5067333;28;20574;-64
2023/04/24 01:37:33;;;;;;;18.42;2.38;;;33.60;26.60;;;;;;5066876;28;20035;-65
2023/04/24 01:39:59;;;;;;;20.20;2.65;;;33.50;26.80;;;;;;5066472;28;20028;-63
2023/04/24 01:42:26;;;;;;;16.42;2.55;;;33.50;26.70;;;;;;5066314;28;20493;-65
2023/04/24 01:44:54;;;;;;;10.55;3.13;;;33.40;26.60;;;;;;5066984;28;20036;-64
2023/04/24 01:47:20;;;;;;;16.90;2.75;;;33.30;26.30;;;;;;5067597;28;20072;-64
2023/04/24 01:49:48;;;;;;;14.13;2.35;;;33.20;26.30;;;;;;5066742;28;20060;-66
2023/04/24 01:52:16;;;;;;;21.10;3.67;;;33.10;25.90;;;;;;5064109;28;20029;-65
2023/04/24 01:54:42;;;;;;;16.88;3.72;;;33.00;25.20;;;;;;5071150;28;20498;-64
2023/04/24 01:57:09;;;;;;;14.57;2.75;;;32.90;25.10;;;;;;5069738;28;20091;-64
2023/04/24 01:59:36;;;;;;;10.65;3.10;;;32.90;25.00;;;;;;5071907;28;20497;-64
2023/04/24 02:02:03;;;;;;;13.35;2.25;;;32.80;24.90;;;;;;5071029;28;20092;-63
2023/04/24 02:04:29;;;;;;;18.33;2.50;;;32.70;24.80;;;;;;5070281;28;20415;-63
2023/04/24 02:06:56;;;;;;;15.40;2.85;;;32.60;24.70;;;;;;5071635;28;20037;-66
2023/04/24 02:09:22;;;;;;;12.70;2.85;;;32.60;24.60;;;;;;5071056;28;20242;-63
2023/04/24 02:11:48;;;;;;;19.63;2.47;;;32.50;24.90;;;;;;5069620;28;20031;-63
2023/04/24 02:14:15;;;;;;;10.98;2.80;;;32.40;25.20;;;;;;5070849;28;20041;-63
2023/04/24 02:16:42;;;;;;;22.33;3.45;;;32.30;25.30;;;;;;5070519;28;20030;-63
2023/04/24 02:19:08;;;;;;;14.88;2.70;;;32.20;25.40;;;;;;5069318;28;20123;-64
2023/04/24 02:21:34;;;;;;;21.42;2.95;;;32.10;25.30;;;;;;5069307;28;20448;-64
2023/04/24 02:24:01;;;;;;;24.50;2.95;;;32.00;25.40;;;;;;5071946;28;20039;-64
2023/04/24 02:26:27;;;;;;;20.70;3.00;;;31.90;25.60;;;;;;5070113;28;20038;-64
2023/04/24 02:28:54;;;;;;;17.10;2.08;;;31.90;25.60;;;;;;5071352;28;20060;-64
2023/04/24 02:31:20;;;;;;;22.73;2.70;;;31.80;25.60;;;;;;5070068;28;20036;-63
2023/04/24 02:33:47;;;;;;;13.32;2.60;;;31.80;26.10;;;;;;5069607;28;20035;-64
2023/04/24 02:36:13;;;;;;;13.45;2.50;;;31.70;26.40;;;;;;5070222;28;20049;-64
2023/04/24 02:38:40;;;;;;;14.27;2.85;;;31.60;26.80;;;;;;5068449;28;20095;-64
2023/04/24 02:41:06;;;;;;;20.33;3.58;;;31.50;27.40;;;;;;5069593;28;20047;-63
2023/04/24 02:43:33;;;;;;;22.45;3.90;;;31.40;26.40;;;;;;5070540;28;20050;-64
2023/04/24 02:46:00;;;;;;;17.65;3.30;;;31.30;26.30;;;;;;5068672;28;20400;-64
2023/04/24 02:48:26;;;;;;;30.45;3.97;;;31.20;26.50;;;;;;5069852;28;20080;-65
2023/04/24 02:50:53;;;;;;;22.05;4.60;;;31.10;27.10;;;;;;5070557;28;20046;-64
2023/04/24 02:53:19;;;;;;;19.80;4.53;;;31.00;27.60;;;;;;5069184;28;20054;-64
2023/04/24 02:55:46;;;;;;;35.13;4.75;;;30.90;28.30;;;;;;5065001;28;20046;-65
2023/04/24 02:58:12;;;;;;;16.83;4.20;;;30.70;27.30;;;;;;5069358;28;20047;-65
2023/04/24 03:00:39;;;;;;;22.55;4.63;;;30.70;28.10;;;;;;5068567;28;20067;-65
2023/04/24 03:03:06;;;;;;;281.80;16.73;;;30.60;28.70;;;;;;5068665;28;20169;-63
2023/04/24 03:05:33;;;;;;;26.17;3.65;;;30.60;29.40;;;;;;5070561;28;20037;-63
2023/04/24 03:07:59;;;;;;;10.20;3.15;;;30.60;29.80;;;;;;5069692;28;20530;-64
2023/04/24 03:10:25;;;;;;;13.35;3.58;;;30.60;30.10;;;;;;5069393;28;20395;-63
2023/04/24 03:12:52;;;;;;;15.02;3.80;;;30.50;30.30;;;;;;5074179;28;20122;-63
2023/04/24 03:15:19;;;;;;;17.88;4.35;;;30.40;30.40;;;;;;5069974;28;20637;-63
2023/04/24 03:17:45;;;;;;;13.05;3.50;;;30.40;31.10;;;;;;5068604;28;20140;-64
2023/04/24 03:20:11;;;;;;;16.30;3.72;;;30.30;31.30;;;;;;5069459;28;20038;-64
2023/04/24 03:22:38;;;;;;;14.60;3.58;;;30.30;31.70;;;;;;5069236;28;20526;-64
2023/04/24 03:25:05;;;;;;;13.63;3.20;;;30.20;31.90;;;;;;5069195;28;20054;-63
2023/04/24 03:27:31;;;;;;;18.48;3.85;;;30.10;32.20;;;;;;5068690;28;20068;-64
2023/04/24 03:29:58;;;;;;;14.57;3.58;;;30.10;32.40;;;;;;5070160;28;20521;-64
2023/04/24 03:32:24;;;;;;;14.57;3.15;;;30.00;32.70;;;;;;5069453;28;20464;-64
2023/04/24 03:34:51;;;;;;;12.63;3.00;;;29.90;32.70;;;;;;5069082;28;20073;-63
2023/04/24 03:37:17;;;;;;;18.80;3.35;;;29.90;32.90;;;;;;5067984;28;20049;-64
2023/04/24 03:39:44;;;;;;;14.70;3.40;;;29.90;33.00;;;;;;5069828;28;20069;-64
2023/04/24 03:42:10;;;;;;;16.38;3.38;;;29.80;33.20;;;;;;5068616;28;20174;-63
2023/04/24 03:44:37;;;;;;;17.52;3.90;;;29.70;33.40;;;;;;5069760;28;20055;-64
2023/04/24 03:47:03;;;;;;;14.77;3.63;;;29.60;33.60;;;;;;5067585;28;20122;-65
2023/04/24 03:49:29;;;;;;;22.42;4.13;;;29.50;33.70;;;;;;5068410;28;20147;-64
2023/04/24 03:51:56;;;;;;;24.42;4.57;;;29.50;34.20;;;;;;5069788;28;20020;-63
2023/04/24 03:54:22;;;;;;;27.17;5.25;;;29.40;34.30;;;;;;5068944;28;20558;-63
2023/04/24 03:56:49;;;;;;;13.13;3.78;;;29.40;34.50;;;;;;5065507;28;20021;-61
2023/04/24 03:59:15;;;;;;;13.00;4.25;;;29.30;34.80;;;;;;5068727;28;20038;-64
2023/04/24 04:01:42;;;;;;;18.90;3.78;;;29.20;35.00;;;;;;5068210;28;20474;-64
2023/04/24 04:04:08;;;;;;;23.85;3.85;;;29.10;35.10;;;;;;5068513;28;20013;-63
2023/04/24 04:06:36;;;;;;;11.88;3.60;;;29.10;35.40;;;;;;5070320;28;20485;-64
2023/04/24 04:09:03;;;;;;;20.50;4.45;;;29.00;35.50;;;;;;5071413;28;20111;-63
2023/04/24 04:11:30;;;;;;;14.65;3.80;;;28.90;35.80;;;;;;5069159;28;20056;-63
2023/04/24 04:13:56;;;;;;;18.92;4.32;;;28.80;35.80;;;;;;5069255;28;20064;-64
2023/04/24 04:16:24;;;;;;;20.27;4.70;;;28.80;35.80;;;;;;5066518;28;20064;-64
2023/04/24 04:18:50;;;;;;;14.80;4.28;;;28.70;35.90;;;;;;5068061;28;20091;-63
2023/04/24 04:21:17;;;;;;;21.92;4.93;;;28.60;36.00;;;;;;5068070;28;20142;-63
2023/04/24 04:23:43;;;;;;;24.48;4.43;;;28.50;36.10;;;;;;5068093;28;20053;-64
2023/04/24 04:26:11;;;;;;;21.70;4.05;;;28.50;36.10;;;;;;5067066;28;20063;-65
2023/04/24 04:28:38;;;;;;;21.13;4.25;;;28.40;36.30;;;;;;5067055;28;20076;-63
2023/04/24 04:31:07;;;;;;;21.00;3.78;;;28.30;36.40;;;;;;5067685;28;20146;-64
2023/04/24 04:33:35;;;;;;;15.18;3.60;;;28.20;36.30;;;;;;5066935;28;20557;-64
2023/04/24 04:36:03;;;;;;;14.75;3.67;;;28.20;36.20;;;;;;5075084;28;20067;-64
2023/04/24 04:38:30;;;;;;;11.82;4.07;;;28.20;36.50;;;;;;5068951;28;20082;-64
2023/04/24 04:40:59;;;;;;;15.82;3.78;;;28.10;36.60;;;;;;5067126;28;20065;-64
2023/04/24 04:43:26;;;;;;;17.23;4.57;;;28.00;36.60;;;;;;5068783;28;20060;-65
2023/04/24 04:45:54;;;;;;;13.82;3.67;;;27.90;36.60;;;;;;5068392;28;20099;-65
2023/04/24 04:48:20;;;;;;;18.33;4.85;;;27.90;36.60;;;;;;5069270;28;20110;-65
2023/04/24 04:50:47;;;;;;;12.82;4.50;;;27.90;36.10;;;;;;5067580;28;20432;-64
2023/04/24 04:53:13;;;;;;;17.58;3.45;;;27.90;36.10;;;;;;5068257;28;20080;-64
2023/04/24 04:55:40;;;;;;;12.82;3.95;;;27.80;36.10;;;;;;5068293;28;20058;-65
2023/04/24 04:58:06;;;;;;;9.98;3.70;;;27.80;36.20;;;;;;5065962;28;20541;-64
2023/04/24 05:00:35;;;;;;;11.68;3.40;;;27.70;36.20;;;;;;5068781;28;20159;-64
2023/04/24 05:03:02;;;;;;;20.23;7.75;;;27.70;36.00;;;;;;5069540;28;20072;-57
2023/04/24 05:05:29;;;;;;;13.25;4.88;;;27.60;35.90;;;;;;5068889;28;20607;-51
2023/04/24 05:07:55;;;;;;;12.02;3.50;;;28.10;35.60;;;;;;5067967;28;20079;-51
2023/04/24 05:10:22;;;;;;;11.63;3.50;;;28.40;35.00;;;;;;5067335;28;20062;-52
2023/04/24 05:12:49;;;;;;;11.80;3.25;;;28.80;35.00;;;;;;5068717;28;20055;-51
2023/04/24 05:15:15;;;;;;;12.48;3.30;;;28.90;34.40;;;;;;5068726;28;20658;-52
2023/04/24 05:17:42;;;;;;;16.48;3.58;;;28.90;33.90;;;;;;5066877;28;20572;-54
2023/04/24 05:20:09;;;;;;;32.45;4.07;;;28.80;33.90;;;;;;5069458;28;20060;-55
2023/04/24 05:22:35;;;;;;;13.82;3.78;;;28.90;34.00;;;;;;5067396;28;20087;-54
2023/04/24 05:25:02;;;;;;;19.70;3.40;;;28.80;33.50;;;;;;5068722;28;20182;-54
2023/04/24 05:27:29;;;;;;;25.95;4.82;;;28.80;33.50;;;;;;5069731;28;20454;-57
2023/04/24 05:29:55;;;;;;;24.75;4.43;;;28.90;33.60;;;;;;5071631;28;20070;-52
2023/04/24 05:32:21;;;;;;;61.00;6.53;;;28.90;33.10;;;;;;5073691;28;20049;-55
2023/04/24 05:34:48;;;;;;;22.25;3.42;;;28.80;33.10;;;;;;5071260;28;20066;-51
2023/04/24 05:37:14;;;;;;;13.35;3.30;;;28.70;32.90;;;;;;5071781;28;20088;-55
2023/04/24 05:39:41;;;;;;;15.82;3.60;;;28.70;32.60;;;;;;5071094;28;20079;-56
2023/04/24 05:42:08;;;;;;;7.72;2.72;;;28.70;32.70;;;;;;5072438;28;20069;-56
2023/04/24 05:44:34;;;;;;;8.05;2.67;;;28.70;32.20;;;;;;5071844;28;20471;-55
2023/04/24 05:47:01;;;;;;;17.75;3.75;;;28.70;31.70;;;;;;5070534;28;20106;-53
2023/04/24 05:49:28;;;;;;;17.67;5.43;;;28.80;31.70;;;;;;5072217;28;20067;-51
2023/04/24 05:51:54;;;;;;;12.55;4.68;;;28.70;31.10;;;;;;5070699;28;20585;-52
2023/04/24 05:54:20;;;;;;;17.85;3.75;;;28.60;31.20;;;;;;5071832;28;20106;-54
2023/04/24 05:56:47;;;;;;;18.85;3.08;;;28.50;31.10;;;;;;5070505;28;20058;-53
2023/04/24 05:59:13;;;;;;;8.13;3.30;;;28.60;30.50;;;;;;5069974;28;20120;-51
2023/04/24 06:01:40;;;;;;;14.80;2.78;;;28.50;30.30;;;;;;5072516;28;20070;-52
2023/04/24 06:04:06;;;;;;;14.82;2.60;;;28.50;29.90;;;;;;5070749;28;20110;-54
2023/04/24 06:06:33;;;;;;;9.63;2.40;;;28.50;29.80;;;;;;5072791;28;20069;-51
2023/04/24 06:09:00;;;;;;;9.88;2.17;;;28.60;29.60;;;;;;5070988;28;20078;-52
2023/04/24 06:11:26;;;;;;;13.52;2.47;;;28.50;29.20;;;;;;5071507;28;20087;-51
2023/04/24 06:13:53;;;;;;;9.93;1.90;;;28.50;29.20;;;;;;5070878;28;20050;-55
2023/04/24 06:16:19;;;;;;;12.05;2.10;;;28.50;29.10;;;;;;5071559;28;20054;-55
2023/04/24 06:18:47;;;;;;;8.60;2.30;;;28.50;29.10;;;;;;5071386;28;20510;-55
2023/04/24 06:21:13;;;;;;;12.43;2.80;;;28.40;29.10;;;;;;5070215;28;20164;-54
2023/04/24 06:23:40;;;;;;;8.02;2.15;;;28.50;29.50;;;;;;5071319;28;20059;-51
2023/04/24 06:26:06;;;;;;;8.07;2.25;;;28.60;30.70;;;;;;5070268;28;20058;-55
2023/04/24 06:28:32;;;;;;;11.68;2.05;;;28.40;32.50;;;;;;5071767;28;20080;-52
2023/04/24 06:30:59;;;;;;;5.63;2.10;;;28.40;32.40;;;;;;5070703;28;20070;-53
2023/04/24 06:33:25;;;;;;;10.05;2.13;;;28.40;32.40;;;;;;5071604;28;20065;-55
2023/04/24 06:35:52;;;;;;;6.05;2.25;;;28.30;32.20;;;;;;5070393;28;20074;-53
2023/04/24 06:38:18;;;;;;;6.85;2.30;;;28.10;33.20;;;;;;5072442;28;20060;-54
2023/04/24 06:40:45;;;;;;;7.07;2.10;;;28.00;32.80;;;;;;5070864;28;20071;-53
2023/04/24 06:43:11;;;;;;;9.98;2.40;;;27.90;33.00;;;;;;5072155;28;20080;-53
2023/04/24 06:45:39;;;;;;;5.78;2.17;;;27.80;33.40;;;;;;5071397;28;20079;-57
2023/04/24 06:48:06;;;;;;;15.73;2.40;;;27.70;34.00;;;;;;5069786;28;20154;-54
2023/04/24 06:50:32;;;;;;;10.45;2.50;;;27.70;33.60;;;;;;5068758;28;20077;-53
2023/04/24 06:52:58;;;;;;;12.93;2.80;;;27.60;33.40;;;;;;5070956;28;20146;-55
2023/04/24 06:55:25;;;;;;;7.93;2.35;;;27.40;34.70;;;;;;5069961;28;20581;-51
2023/04/24 06:57:51;;;;;;;7.43;2.33;;;27.40;34.20;;;;;;5070682;28;20063;-51
2023/04/24 07:00:18;;;;;;;15.95;3.08;;;27.20;34.70;;;;;;5070725;28;20089;-53
2023/04/24 07:02:44;;;;;;;13.75;2.70;;;27.20;35.70;;;;;;5069412;28;20566;-54
2023/04/24 07:05:10;;;;;;;13.45;2.55;;;27.10;35.80;;;;;;5071259;28;20160;-55
2023/04/24 07:07:37;;;;;;;8.48;2.58;;;27.10;35.90;;;;;;5068676;28;20079;-59
2023/04/24 07:10:05;;;;;;;10.13;2.67;;;27.00;34.90;;;;;;5070277;28;20562;-52
2023/04/24 07:12:32;;;;;;;9.82;2.75;;;26.90;35.80;;;;;;5069882;28;20111;-54
2023/04/24 07:15:00;;;;;;;10.10;2.38;;;26.70;35.30;;;;;;5071349;28;20084;-54
2023/04/24 07:17:26;;;;;;;10.20;2.70;;;26.70;35.30;;;;;;5070554;28;20090;-55
2023/04/24 07:19:53;;;;;;;12.43;2.45;;;26.50;35.40;;;;;;5068715;28;20071;-56
2023/04/24 07:22:19;;;;;;;11.20;2.65;;;26.50;35.60;;;;;;5070026;28;20111;-55
2023/04/24 07:24:46;;;;;;;13.30;3.20;;;26.50;36.20;;;;;;5069663;28;20069;-52
2023/04/24 07:27:14;;;;;;;14.52;3.92;;;26.40;36.40;;;;;;5070138;28;20121;-55
2023/04/24 07:29:41;;;;;;;15.25;3.38;;;26.30;36.30;;;;;;5069318;28;20179;-56
2023/04/24 07:32:08;;;;;;;16.48;4.80;;;26.20;37.60;;;;;;5070957;28;20069;-59
2023/04/24 07:34:35;;;;;;;16.23;4.82;;;26.10;36.80;;;;;;5068077;28;20066;-54
2023/04/24 07:37:03;;;;;;;9.98;4.15;;;25.90;36.60;;;;;;5069888;28;20597;-56
2023/04/24 07:39:29;;;;;;;20.67;6.03;;;25.80;37.40;;;;;;5069498;28;20137;-54
2023/04/24 07:41:56;;;;;;;23.30;4.97;;;25.80;37.10;;;;;;5067800;28;20504;-53
2023/04/24 07:44:22;;;;;;;15.20;5.38;;;25.80;36.70;;;;;;5070167;28;20063;-54
2023/04/24 07:46:48;;;;;;;23.23;5.97;;;25.70;36.70;;;;;;5068859;28;20131;-57
2023/04/24 07:49:15;;;;;;;25.67;5.88;;;25.70;36.90;;;;;;5070510;28;20100;-54
2023/04/24 07:51:41;;;;;;;29.45;6.85;;;25.70;37.40;;;;;;5068376;28;20497;-53
2023/04/24 07:54:08;;;;;;;54.60;9.52;;;25.70;38.20;;;;;;5069911;28;20065;-56
2023/04/24 07:56:38;;;;;;;62.08;11.10;;;25.60;40.10;;;;;;5070593;28;20426;-56
2023/04/24 07:59:05;;;;;;;70.03;12.05;;;25.60;41.10;;;;;;5069645;28;20068;-54
2023/04/24 08:01:31;;;;;;;71.25;13.45;;;25.50;42.00;;;;;;5069537;28;20073;-53
2023/04/24 08:03:58;;;;;;;77.90;14.00;;;25.40;42.90;;;;;;5070358;28;20069;-54
2023/04/24 08:06:27;;;;;;;56.33;11.65;;;25.40;43.70;;;;;;5070400;28;20093;-56
2023/04/24 08:08:54;;;;;;;64.72;12.63;;;25.40;44.40;;;;;;5068506;28;20090;-54
2023/04/24 08:11:20;;;;;;;69.07;12.65;;;25.30;45.20;;;;;;5070407;28;20071;-52
2023/04/24 08:13:46;;;;;;;83.53;13.82;;;25.00;45.60;;;;;;5069423;28;20166;-54
2023/04/24 08:16:13;;;;;;;75.15;12.85;;;25.00;45.40;;;;;;5070000;28;20476;-52
2023/04/24 08:18:40;;;;;;;74.03;12.32;;;25.10;45.40;;;;;;5067217;28;20133;-54
2023/04/24 08:21:06;;;;;;;60.50;13.05;;;25.00;45.40;;;;;;5068112;28;20090;-53
2023/04/24 08:23:32;;;;;;;83.53;12.30;;;25.00;45.30;;;;;;5067756;28;20075;-58
2023/04/24 08:25:59;;;;;;;64.03;11.70;;;24.90;45.40;;;;;;5068182;28;20071;-54
2023/04/24 08:28:26;;;;;;;81.80;14.15;;;24.90;45.70;;;;;;5069805;28;20546;-57
2023/04/24 08:30:54;;;;;;;71.15;12.25;;;24.80;45.90;;;;;;5068551;28;20070;-52
2023/04/24 08:33:24;;;;;;;59.65;12.45;;;24.70;46.20;;;;;;5069378;28;20071;-56
2023/04/24 08:35:50;;;;;;;58.25;11.70;;;24.50;46.10;;;;;;5068969;28;20093;-56
2023/04/24 08:38:17;;;;;;;56.38;11.68;;;24.50;46.20;;;;;;5068177;28;20109;-55
2023/04/24 08:40:45;;;;;;;50.33;10.50;;;24.40;45.90;;;;;;5067534;28;20078;-54
2023/04/24 08:43:13;;;;;;;64.50;11.85;;;24.40;46.40;;;;;;5067834;28;20081;-55
2023/04/24 08:45:40;;;;;;;53.08;11.57;;;24.30;46.90;;;;;;5067974;28;20071;-55
2023/04/24 08:48:08;;;;;;;53.58;12.38;;;24.30;46.70;;;;;;5068131;28;20192;-57
2023/04/24 08:50:35;;;;;;;64.07;12.70;;;24.30;46.40;;;;;;5067338;28;20088;-57
2023/04/24 08:53:02;;;;;;;53.90;11.50;;;24.30;45.70;;;;;;5069432;28;20549;-54
2023/04/24 08:55:32;;;;;;;55.10;12.80;;;24.30;45.50;;;;;;5070969;28;20063;-56
2023/04/24 08:58:00;;;;;;;53.67;13.48;;;24.20;45.50;;;;;;5068113;28;20088;-54
2023/04/24 09:00:27;;;;;;;60.55;12.73;;;24.30;45.40;;;;;;5069401;28;20113;-54
2023/04/24 09:02:54;;;;;;;41.88;14.45;;;24.30;45.50;;;;;;5066299;28;20076;-54
2023/04/24 09:05:23;;;;;;;43.90;13.25;;;24.10;45.70;;;;;;5067943;28;20126;-56
2023/04/24 09:07:57;;;;;;;43.90;12.40;;;24.10;45.40;;;;;;5067884;28;20958;-54
2023/04/24 09:10:25;;;;;;;40.13;10.85;;;24.10;45.70;;;;;;5068825;28;20073;-55
2023/04/24 09:12:52;;;;;;;36.42;12.07;;;23.90;45.90;;;;;;5067204;28;20079;-54
2023/04/24 09:15:20;;;;;;;35.83;10.52;;;23.80;46.10;;;;;;5068785;28;20142;-54
2023/04/24 09:17:47;;;;;;;34.08;10.85;;;23.90;46.50;;;;;;5068102;28;20221;-55
2023/04/24 09:20:14;;;;;;;42.08;11.40;;;23.80;46.80;;;;;;5067101;28;20507;-54
2023/04/24 09:22:43;;;;;;;41.85;12.52;;;23.70;47.10;;;;;;5067793;28;20124;-52
2023/04/24 09:25:12;;;;;;;43.55;12.15;;;23.70;47.40;;;;;;5068382;28;20580;-52
2023/04/24 09:27:43;;;;;;;40.83;12.48;;;23.70;47.90;;;;;;5068846;28;20134;-54
2023/04/24 09:30:10;;;;;;;36.47;12.10;;;23.60;48.00;;;;;;5066510;28;20441;-54
2023/04/24 09:32:37;;;;;;;33.10;11.20;;;23.60;48.00;;;;;;5068250;28;20074;-55
2023/04/24 09:35:15;;;;;;;32.60;11.05;;;23.60;48.30;;;;;;5072173;28;20506;-55
2023/04/24 09:37:43;;;;;;;36.88;11.90;;;23.40;48.90;;;;;;5068899;28;20074;-55
2023/04/24 09:40:17;;;;;;;31.15;10.63;;;23.40;49.20;;;;;;5066764;28;20102;-55
2023/04/24 09:42:46;;;;;;;37.72;11.20;;;23.40;48.80;;;;;;5066985;28;20084;-54
2023/04/24 09:45:12;;;;;;;36.20;11.18;;;23.40;48.80;;;;;;5068549;28;20071;-53
2023/04/24 09:47:40;;;;;;;32.28;9.82;;;23.30;48.90;;;;;;5067446;28;20601;-57
2023/04/24 09:50:11;;;;;;;34.75;9.90;;;23.30;48.90;;;;;;5067438;28;20096;-55
2023/04/24 09:52:44;;;;;;;28.67;9.60;;;23.20;48.90;;;;;;5067236;28;20079;-55
2023/04/24 09:55:19;;;;;;;30.17;9.20;;;23.20;49.20;;;;;;5067881;28;20435;-57
2023/04/24 09:57:55;;;;;;;32.17;9.27;;;23.10;49.30;;;;;;5068141;28;20089;-54
2023/04/24 10:00:29;;;;;;;37.25;9.75;;;23.10;49.40;;;;;;5065961;28;20090;-55
2023/04/24 10:03:03;;;;;;;25.42;8.38;;;23.10;49.50;;;;;;5068133;28;20173;-53
2023/04/24 10:05:34;;;;;;;25.25;9.73;;;23.20;49.40;;;;;;5069640;28;20044;-59
2023/04/24 10:08:04;;;;;;;25.67;9.48;;;23.00;50.40;;;;;;5066603;28;20081;-56
2023/04/24 10:10:38;;;;;;;38.80;11.43;;;22.80;50.30;;;;;;5069124;28;20156;-54
2023/04/24 10:13:04;;;;;;;39.72;11.98;;;22.90;49.70;;;;;;5069797;28;20481;-54
2023/04/24 10:15:31;;;;;;;37.65;12.80;;;23.00;49.10;;;;;;5071645;28;20116;-55
2023/04/24 10:18:02;;;;;;;44.63;12.27;;;23.10;48.80;;;;;;5070187;28;20544;-54
2023/04/24 10:20:32;;;;;;;39.28;14.18;;;23.00;48.80;;;;;;5070959;28;20075;-58
2023/04/24 10:23:00;;;;;;;45.00;17.63;;;22.90;49.50;;;;;;5070602;28;20135;-54
2023/04/24 10:25:31;;;;;;;47.80;18.67;;;22.80;49.50;;;;;;5070869;28;20068;-50
2023/04/24 10:27:59;;;;;;;39.95;17.67;;;22.70;49.30;;;;;;5071562;28;20111;-55
2023/04/24 10:30:34;;;;;;;46.03;15.35;;;22.50;49.70;;;;;;5070635;28;20557;-54
2023/04/24 10:33:02;;;;;;;54.33;14.75;;;22.60;49.20;;;;;;5071005;28;20439;-52
2023/04/24 10:35:32;;;;;;;59.88;17.13;;;22.50;48.70;;;;;;5071042;28;20070;-54
2023/04/24 10:38:23;;;;;;;44.65;16.30;;;22.60;48.50;;;;;;5069892;28;20078;-58
2023/04/24 10:40:50;;;;;;;50.17;16.13;;;22.70;48.60;;;;;;5070476;28;20079;-53
2023/04/24 10:43:18;;;;;;;51.13;16.17;;;22.60;48.70;;;;;;5069203;28;20084;-53
2023/04/24 10:46:05;;;;;;;48.35;16.58;;;22.60;48.90;;;;;;5070277;28;20072;-53
2023/04/24 10:48:32;;;;;;;50.45;16.35;;;22.50;49.00;;;;;;5069512;28;20108;-51
2023/04/24 10:50:59;;;;;;;45.30;15.35;;;22.50;49.50;;;;;;5069279;28;20092;-57
2023/04/24 10:53:29;;;;;;;49.20;15.88;;;22.60;49.20;;;;;;5070922;28;20067;-58
2023/04/24 10:56:07;;;;;;;49.83;16.25;;;22.60;49.00;;;;;;5069471;28;20083;-57
2023/04/24 10:58:43;;;;;;;47.15;15.95;;;22.60;49.10;;;;;;5070361;28;20091;-54
2023/04/24 11:01:22;;;;;;;55.77;18.17;;;22.60;49.30;;;;;;5071724;28;20604;-53
2023/04/24 11:03:56;;;;;;;54.28;17.52;;;22.60;49.00;;;;;;5069069;28;20098;-53
2023/04/24 11:06:38;;;;;;;46.90;16.50;;;22.50;48.90;;;;;;5074590;28;20083;-57
2023/04/24 11:09:07;;;;;;;49.20;16.60;;;22.40;49.10;;;;;;5068830;28;20087;-54
2023/04/24 11:11:35;;;;;;;39.53;15.88;;;22.40;49.40;;;;;;5070632;28;20097;-56
2023/04/24 11:14:04;;;;;;;41.35;15.35;;;22.40;49.60;;;;;;5068715;28;20068;-56
2023/04/24 11:16:45;;;;;;;49.80;15.38;;;22.50;49.40;;;;;;5070705;28;20103;-52
2023/04/24 11:19:17;;;;;;;50.28;15.07;;;22.40;49.80;;;;;;5068207;28;20072;-55
2023/04/24 11:21:46;;;;;;;41.70;14.45;;;22.40;49.90;;;;;;5068958;28;20087;-55
2023/04/24 11:24:39;;;;;;;46.20;15.18;;;22.40;50.10;;;;;;5069851;28;20082;-55
2023/04/24 11:27:21;;;;;;;44.88;15.85;;;22.40;50.20;;;;;;5069956;28;20075;-56
2023/04/24 11:29:48;;;;;;;44.50;15.95;;;22.40;50.30;;;;;;5068973;28;20085;-53
2023/04/24 11:32:33;;;;;;;44.10;17.15;;;22.30;50.20;;;;;;5071499;28;20079;-53
2023/04/24 11:35:20;;;;;;;46.58;17.65;;;22.20;50.20;;;;;;5071079;28;20071;-55
2023/04/24 11:37:50;;;;;;;;;;;22.20;50.40;;;;;;5070619;28;20517;-51
2023/04/24 11:40:22;;;;;;;54.63;19.30;;;22.20;50.70;;;;;;5069905;28;19974;-54
2023/04/24 11:42:51;;;;;;;57.38;18.23;;;22.00;50.80;;;;;;5069426;28;20071;-51
2023/04/24 11:45:26;;;;;;;56.22;15.68;;;22.00;50.80;;;;;;5068417;28;20220;-50
2023/04/24 11:47:53;;;;;;;50.13;13.95;;;22.00;50.80;;;;;;5069899;28;20178;-55
2023/04/24 11:50:23;;;;;;;48.30;12.43;;;22.00;50.90;;;;;;5068548;28;20095;-60
2023/04/24 11:52:50;;;;;;;43.28;11.95;;;21.90;51.00;;;;;;5069757;28;20072;-53
2023/04/24 11:55:17;;;;;;;39.78;11.88;;;21.90;51.10;;;;;;5068498;28;20092;-55
2023/04/24 11:57:45;;;;;;;36.47;11.07;;;21.90;51.00;;;;;;5069297;28;20059;-53
2023/04/24 12:00:23;;;;;;;35.72;10.48;;;21.90;51.10;;;;;;5068439;28;20625;-53
2023/04/24 12:02:51;;;;;;;41.58;9.05;;;21.80;51.20;;;;;;5068368;28;20066;-54
2023/04/24 12:05:27;;;;;;;44.28;10.23;;;21.80;51.60;;;;;;5070132;28;20095;-54
2023/04/24 12:07:54;;;;;;;35.67;8.93;;;21.80;51.60;;;;;;5068743;28;20554;-54
2023/04/24 12:10:22;;;;;;;47.42;9.52;;;21.50;71.30;;;;;;5072879;28;20514;-53
2023/04/24 12:12:51;;;;;;;34.53;9.85;;;21.80;51.30;;;;;;5078052;28;20065;-53
2023/04/24 12:15:19;;;;;;;45.85;14.73;;;21.70;51.90;;;;;;5069637;28;20061;-56
2023/04/24 12:17:46;;;;;;;56.97;20.08;;;21.60;52.10;;;;;;5068017;28;20167;-55
2023/04/24 12:20:13;;;;;;;63.78;22.58;;;21.50;51.70;;;;;;5067335;28;20092;-55
2023/04/24 12:22:50;;;;;;;70.75;25.55;;;21.50;50.70;;;;;;5069339;28;20071;-56
2023/04/24 12:25:19;;;;;;;64.88;22.20;;;21.50;50.00;;;;;;5068175;28;20040;-58
2023/04/24 12:27:46;;;;;;;61.75;21.25;;;21.60;49.70;;;;;;5068521;28;20447;-54
2023/04/24 12:30:17;;;;;;;52.63;19.85;;;21.50;49.90;;;;;;5068883;28;20568;-54
2023/04/24 12:32:49;;;;;;;51.97;17.95;;;21.40;50.70;;;;;;5069670;28;20618;-56
2023/04/24 12:35:23;;;;;;;37.10;14.48;;;21.30;50.10;;;;;;5067847;28;20016;-54
2023/04/24 12:37:50;;;;;;;48.00;13.30;;;21.30;49.20;;;;;;5068819;28;20561;-54
2023/04/24 12:40:20;;;;;;;41.47;12.55;;;21.40;48.80;;;;;;5066387;28;20090;-54